createdAt,value
2022-08-26T00:03:46.410Z,27.90
2022-08-26T00:08:49.374Z,28.47
2022-08-26T00:13:52.153Z,28.50
2022-08-26T00:18:56.827Z,28.30
2022-08-26T00:23:59.591Z,28.57
2022-08-26T00:29:02.373Z,27.83
2022-08-26T00:34:05.158Z,36.17
2022-08-26T00:39:08.457Z,26.87
2022-08-26T00:44:11.562Z,25.60
2022-08-26T00:49:29.602Z,29.17
2022-08-26T00:54:40.337Z,25.73
2022-08-26T00:59:53.023Z,30.13
2022-08-26T01:04:59.543Z,30.67
2022-08-26T01:10:05.292Z,31.67
2022-08-26T01:15:13.865Z,30.83
2022-08-26T01:20:31.536Z,30.97
2022-08-26T01:25:39.259Z,29.63
2022-08-26T01:30:44.353Z,25.97
2022-08-26T01:35:49.154Z,31.97
2022-08-26T01:40:53.634Z,32.90
2022-08-26T01:45:57.985Z,33.57
2022-08-26T01:51:03.536Z,30.60
2022-08-26T01:56:12.066Z,38.07
2022-08-26T02:01:16.268Z,32.80
2022-08-26T02:06:21.448Z,30.73
2022-08-26T02:11:24.318Z,26.73
2022-08-26T02:16:32.728Z,36.03
2022-08-26T02:21:35.944Z,31.93
2022-08-26T02:26:39.534Z,30.53
2022-08-26T02:31:43.478Z,30.37
2022-08-26T02:36:46.334Z,37.60
2022-08-26T02:41:49.446Z,31.63
2022-08-26T02:46:52.939Z,31.47
2022-08-26T02:51:57.874Z,26.03
2022-08-26T02:57:06.125Z,31.47
2022-08-26T03:02:11.171Z,38.37
2022-08-26T03:07:14.311Z,29.73
2022-08-26T03:12:17.142Z,34.50
2022-08-26T03:17:21.615Z,28.73
2022-08-26T03:22:24.742Z,28.17
2022-08-26T03:27:27.543Z,27.90
2022-08-26T03:32:30.908Z,27.80
2022-08-26T03:37:33.587Z,29.77
2022-08-26T03:42:39.254Z,29.60
2022-08-26T03:47:45.256Z,27.63
2022-08-26T03:52:48.087Z,31.77
2022-08-26T03:57:51.137Z,29.20
2022-08-26T04:02:54.019Z,31.20
2022-08-26T04:07:56.833Z,29.47
2022-08-26T04:13:00.338Z,29.67
2022-08-26T04:18:03.311Z,32.80
2022-08-26T04:23:06.268Z,32.27
2022-08-26T04:28:09.586Z,32.03
2022-08-26T04:33:13.821Z,28.93
2022-08-26T04:38:20.016Z,30.07
2022-08-26T04:43:23.011Z,37.93
2022-08-26T04:48:26.986Z,49.40
2022-08-26T04:53:29.721Z,32.67
2022-08-26T04:58:33.143Z,37.93
2022-08-26T05:03:37.096Z,35.40
2022-08-26T05:08:40.007Z,38.93
2022-08-26T05:13:43.778Z,40.07
2022-08-26T05:18:47.552Z,37.97
2022-08-26T05:23:51.724Z,44.90
2022-08-26T05:28:55.771Z,49.73
2022-08-26T05:33:59.714Z,51.47
2022-08-26T05:39:07.388Z,44.17
2022-08-26T05:44:14.024Z,54.73
2022-08-26T05:49:17.033Z,63.70
2022-08-26T05:54:21.328Z,70.20
2022-08-26T05:59:25.252Z,75.60
2022-08-26T06:04:29.951Z,60.23
2022-08-26T06:09:36.352Z,51.30
2022-08-26T06:14:41.650Z,44.67
2022-08-26T06:19:47.494Z,39.23
2022-08-26T06:25:08.724Z,41.90
2022-08-26T06:30:13.192Z,39.90
2022-08-26T06:35:16.406Z,39.70
2022-08-26T06:40:21.087Z,41.33
2022-08-26T06:45:24.361Z,38.03
2022-08-26T06:50:27.135Z,41.00
2022-08-26T06:55:32.133Z,40.17
2022-08-26T07:00:36.643Z,47.53
2022-08-26T07:05:41.071Z,36.10
2022-08-26T07:10:44.133Z,31.23
2022-08-26T07:15:49.856Z,40.53
2022-08-26T07:21:02.818Z,28.33
2022-08-26T07:26:11.873Z,29.87
2022-08-26T07:31:15.898Z,42.03
2022-08-26T07:36:20.074Z,25.07
2022-08-26T07:41:24.861Z,31.20
2022-08-26T07:46:30.240Z,24.63
2022-08-26T07:51:33.449Z,30.25
2022-08-26T07:56:36.282Z,30.27
2022-08-26T08:01:39.432Z,24.20
2022-08-26T08:06:44.878Z,30.27
2022-08-26T08:11:51.223Z,26.85
2022-08-26T08:16:54.488Z,28.98
2022-08-26T08:21:57.578Z,28.58
2022-08-26T08:27:03.651Z,31.85
2022-08-26T08:32:06.839Z,27.98
2022-08-26T08:37:14.594Z,24.98
2022-08-26T08:42:39.164Z,23.17
2022-08-26T08:47:55.126Z,24.55
2022-08-26T08:53:22.722Z,20.77
2022-08-26T08:58:52.200Z,23.95
2022-08-26T09:04:19.163Z,26.17
2022-08-26T09:09:48.399Z,32.60
2022-08-26T09:14:56.779Z,22.80
2022-08-26T09:20:13.458Z,22.20
2022-08-26T09:25:17.166Z,23.17
2022-08-26T09:30:33.233Z,19.50
2022-08-26T09:35:40.846Z,21.35
2022-08-26T09:40:59.190Z,22.90
2022-08-26T09:46:22.712Z,22.42
2022-08-26T09:51:32.172Z,20.17
2022-08-26T09:56:38.593Z,26.10
2022-08-26T10:01:43.962Z,20.08
2022-08-26T10:07:03.983Z,16.08
2022-08-26T10:12:15.516Z,18.45
2022-08-26T10:17:49.791Z,11.52
2022-08-26T10:23:23.318Z,17.27
2022-08-26T10:28:48.214Z,20.00
2022-08-26T10:33:55.470Z,18.23
2022-08-26T10:39:05.031Z,19.30
2022-08-26T10:44:11.006Z,13.95
2022-08-26T10:49:16.192Z,20.50
2022-08-26T10:54:40.413Z,14.68
2022-08-26T10:59:55.812Z,16.35
2022-08-26T11:05:05.646Z,19.38
2022-08-26T11:10:20.270Z,12.68
2022-08-26T11:15:29.593Z,13.60
2022-08-26T11:20:47.137Z,14.50
2022-08-26T11:25:59.759Z,15.65
2022-08-26T11:31:04.572Z,13.27
2022-08-26T11:36:11.967Z,13.50
2022-08-26T11:41:20.995Z,15.23
2022-08-26T11:46:30.518Z,13.32
2022-08-26T11:51:40.481Z,12.93
2022-08-26T11:56:47.155Z,11.27
2022-08-26T12:01:53.423Z,10.57
2022-08-26T12:06:57.288Z,13.83
2022-08-26T12:12:18.383Z,17.67
2022-08-26T12:17:28.386Z,13.80
2022-08-26T12:22:38.930Z,13.30
2022-08-26T12:27:48.671Z,14.67
2022-08-26T12:33:22.742Z,13.30
2022-08-26T12:38:28.038Z,12.13
2022-08-26T12:43:45.621Z,13.53
2022-08-26T12:48:50.072Z,13.27
2022-08-26T12:53:52.931Z,16.37
2022-08-26T12:59:22.256Z,12.80
2022-08-26T13:04:35.775Z,12.03
2022-08-26T13:09:38.704Z,14.10
2022-08-26T13:14:41.493Z,18.47
2022-08-26T13:19:44.633Z,15.67
2022-08-26T13:24:47.525Z,21.83
2022-08-26T13:29:51.415Z,19.33
2022-08-26T13:34:56.505Z,15.57
2022-08-26T13:39:59.354Z,14.50
2022-08-26T13:45:02.734Z,19.63
2022-08-26T13:50:06.124Z,16.15
2022-08-26T13:55:09.496Z,16.93
2022-08-26T14:00:12.986Z,13.18
2022-08-26T14:05:16.183Z,15.32
2022-08-26T14:10:19.495Z,14.73
2022-08-26T14:15:24.637Z,15.82
2022-08-26T14:20:30.415Z,16.83
2022-08-26T14:25:33.771Z,11.70
2022-08-26T14:30:40.391Z,11.52
2022-08-26T14:35:47.356Z,13.10
2022-08-26T14:40:52.716Z,18.15
2022-08-26T14:45:55.512Z,13.45
2022-08-26T14:50:58.234Z,17.52
2022-08-26T14:56:01.572Z,12.93
2022-08-26T15:01:04.583Z,14.93
2022-08-26T15:06:07.692Z,15.33
2022-08-26T15:11:10.619Z,12.52
2022-08-26T15:16:14.119Z,12.87
2022-08-26T15:21:17.323Z,19.80
2022-08-26T15:26:21.554Z,18.25
2022-08-26T15:31:31.562Z,14.33
2022-08-26T15:36:37.496Z,14.73
2022-08-26T15:41:41.265Z,18.57
2022-08-26T15:46:44.598Z,18.45
2022-08-26T15:51:50.517Z,13.60
2022-08-26T15:56:53.961Z,15.63
2022-08-26T16:01:57.206Z,15.77
2022-08-26T16:07:00.113Z,15.27
2022-08-26T16:12:03.049Z,13.87
2022-08-26T16:17:05.998Z,14.63
2022-08-26T16:22:09.344Z,16.77
2022-08-26T16:27:13.049Z,21.47
2022-08-26T16:32:15.877Z,16.97
2022-08-26T16:37:18.752Z,20.20
2022-08-26T16:42:21.558Z,15.30
2022-08-26T16:47:24.845Z,33.93
2022-08-26T16:52:31.346Z,16.20
2022-08-26T16:57:36.477Z,18.17
2022-08-26T17:02:40.399Z,16.07
2022-08-26T17:07:43.284Z,16.87
2022-08-26T17:12:46.872Z,17.60
2022-08-26T17:17:50.792Z,16.40
2022-08-26T17:22:55.194Z,18.93
2022-08-26T17:28:01.023Z,19.83
2022-08-26T17:33:10.853Z,17.43
2022-08-26T17:38:14.234Z,18.27
2022-08-26T17:43:17.793Z,16.33
2022-08-26T17:48:20.536Z,17.87
2022-08-26T17:53:24.715Z,13.50
2022-08-26T17:58:27.602Z,14.73
2022-08-26T18:03:32.357Z,20.53
2022-08-26T18:08:35.259Z,12.87
2022-08-26T18:13:38.798Z,17.17
2022-08-26T18:18:53.568Z,15.83
2022-08-26T18:23:56.773Z,16.80
2022-08-26T18:29:00.383Z,18.10
2022-08-26T18:34:03.886Z,22.10
2022-08-26T18:39:08.409Z,17.27
2022-08-26T18:44:13.890Z,18.10
2022-08-26T18:49:18.893Z,17.07
2022-08-26T18:54:22.157Z,18.93
2022-08-26T18:59:28.473Z,17.60
2022-08-26T19:04:33.349Z,21.57
2022-08-26T19:09:36.216Z,16.43
2022-08-26T19:14:39.031Z,21.67
2022-08-26T19:19:41.816Z,23.17
2022-08-26T19:24:44.614Z,20.87
2022-08-26T19:29:47.899Z,18.37
2022-08-26T19:34:53.927Z,16.97
2022-08-26T19:39:56.986Z,17.40
2022-08-26T19:45:24.275Z,19.43
2022-08-26T19:50:30.225Z,21.47
2022-08-26T19:55:33.512Z,19.73
2022-08-26T20:00:39.799Z,20.33
2022-08-26T20:05:42.706Z,22.27
2022-08-26T20:10:57.478Z,21.07
2022-08-26T20:16:16.774Z,22.70
2022-08-26T20:21:32.367Z,25.67
2022-08-26T20:26:40.129Z,28.20
2022-08-26T20:31:44.318Z,28.03
2022-08-26T20:37:02.456Z,25.57
2022-08-26T20:42:20.487Z,26.93
2022-08-26T20:47:29.180Z,28.93
2022-08-26T20:52:39.219Z,30.57
2022-08-26T20:57:45.895Z,27.10
2022-08-26T21:03:02.771Z,27.70
2022-08-26T21:08:10.495Z,23.63
2022-08-26T21:13:14.924Z,29.23
2022-08-26T21:18:17.703Z,23.93
2022-08-26T21:23:20.622Z,26.43
2022-08-26T21:28:23.368Z,26.60
2022-08-26T21:33:26.190Z,30.03
2022-08-26T21:38:33.682Z,25.73
2022-08-26T21:43:36.856Z,27.23
2022-08-26T21:48:41.740Z,27.13
2022-08-26T21:53:44.694Z,32.47
2022-08-26T21:58:47.843Z,30.13
2022-08-26T22:04:03.573Z,31.83
2022-08-26T22:09:09.098Z,36.07
2022-08-26T22:14:12.035Z,35.70
2022-08-26T22:19:17.454Z,37.90
2022-08-26T22:24:22.607Z,37.57
2022-08-26T22:29:25.804Z,41.57
2022-08-26T22:34:28.791Z,37.80
2022-08-26T22:39:31.591Z,14.47
2022-08-26T22:44:36.711Z,8.47
2022-08-26T22:49:39.537Z,6.67
2022-08-26T22:54:42.395Z,4.80
2022-08-26T22:59:45.343Z,5.67
2022-08-26T23:04:48.222Z,6.10
2022-08-26T23:09:51.044Z,8.97
2022-08-26T23:14:53.865Z,10.03
2022-08-26T23:19:58.306Z,8.53
2022-08-26T23:25:02.576Z,8.93
2022-08-26T23:30:14.943Z,7.17
2022-08-26T23:35:20.656Z,7.00
2022-08-26T23:40:32.312Z,8.17
2022-08-26T23:45:35.700Z,7.03
2022-08-26T23:51:02.166Z,8.70
2022-08-26T23:56:32.111Z,5.50
